createdAt,value
2018-03-15T00:02:15.850Z,95314.27
2018-03-15T00:05:39.126Z,95317.38
2018-03-15T00:09:02.404Z,95318.47
2018-03-15T00:12:26.539Z,95310.64
2018-03-15T00:15:50.586Z,95308.56
2018-03-15T00:19:14.630Z,95304.42
2018-03-15T00:22:42.806Z,95301.26
2018-03-15T00:26:06.227Z,95304.17
2018-03-15T00:29:30.343Z,95304.52
2018-03-15T00:32:53.643Z,95303.35
2018-03-15T00:36:16.949Z,95305.50
2018-03-15T00:39:41.094Z,95309.77
2018-03-15T00:43:05.078Z,95296.65
2018-03-15T00:46:30.111Z,95297.59
2018-03-15T00:49:53.421Z,95307.78
2018-03-15T00:53:16.686Z,95302.36
2018-03-15T00:56:39.963Z,95292.37
2018-03-15T01:00:03.276Z,95296.69
2018-03-15T01:03:26.578Z,95288.88
2018-03-15T01:06:50.619Z,95291.70
2018-03-15T01:10:14.737Z,95284.84
2018-03-15T01:13:38.019Z,95282.66
2018-03-15T01:17:02.072Z,95288.47
2018-03-15T01:20:25.368Z,95285.89
2018-03-15T01:23:49.407Z,95277.91
2018-03-15T01:27:13.461Z,95273.19
2018-03-15T01:30:36.739Z,95269.05
2018-03-15T01:34:00.013Z,95261.63
2018-03-15T01:37:23.389Z,95254.43
2018-03-15T01:40:46.812Z,95251.06
2018-03-15T01:44:10.869Z,95243.38
2018-03-15T01:47:35.575Z,95239.66
2018-03-15T01:50:58.840Z,95245.37
2018-03-15T01:54:22.960Z,95234.18
2018-03-15T01:57:47.094Z,95231.83
2018-03-15T02:01:10.465Z,95222.75
2018-03-15T02:04:33.947Z,95220.14
2018-03-15T02:07:58.028Z,95214.27
2018-03-15T02:11:22.159Z,95212.58
2018-03-15T02:14:45.529Z,95214.74
2018-03-15T02:18:10.029Z,95214.27
2018-03-15T02:21:33.321Z,95204.02
2018-03-15T02:24:56.667Z,95204.91
2018-03-15T02:28:20.731Z,95196.75
2018-03-15T02:31:44.943Z,95197.80
2018-03-15T02:35:08.219Z,95192.77
2018-03-15T02:38:32.363Z,95186.70
2018-03-15T02:41:56.425Z,95179.14
2018-03-15T02:45:19.758Z,95175.95
2018-03-15T02:48:43.126Z,95186.86
2018-03-15T02:52:07.177Z,95170.70
2018-03-15T02:55:31.261Z,95173.72
2018-03-15T02:58:55.342Z,95178.72
2018-03-15T03:02:18.614Z,95178.70
2018-03-15T03:05:42.646Z,95165.40
2018-03-15T03:09:06.726Z,95163.55
2018-03-15T03:12:30.026Z,95163.41
2018-03-15T03:15:53.291Z,95164.17
2018-03-15T03:19:16.632Z,95164.74
2018-03-15T03:22:40.003Z,95152.67
2018-03-15T03:26:03.372Z,95136.99
2018-03-15T03:29:26.737Z,95122.06
2018-03-15T03:32:50.053Z,95105.66
2018-03-15T03:36:13.394Z,95094.54
2018-03-15T03:39:37.454Z,95090.25
2018-03-15T03:43:00.734Z,95081.40
2018-03-15T03:46:24.140Z,95093.42
2018-03-15T03:49:48.255Z,95082.54
2018-03-15T03:53:12.310Z,95078.14
2018-03-15T03:56:36.350Z,95070.08
2018-03-15T03:59:59.662Z,95054.82
2018-03-15T04:03:23.700Z,95036.30
2018-03-15T04:06:47.023Z,95024.16
2018-03-15T04:10:10.277Z,95032.44
2018-03-15T04:13:34.329Z,95040.20
2018-03-15T04:16:57.669Z,95047.22
2018-03-15T04:20:20.964Z,95042.45
2018-03-15T04:23:44.351Z,95040.94
2018-03-15T04:27:07.692Z,95040.16
2018-03-15T04:30:31.748Z,95035.92
2018-03-15T04:33:55.027Z,95031.92
2018-03-15T04:37:18.298Z,95025.95
2018-03-15T04:40:41.597Z,95029.59
2018-03-15T04:44:04.875Z,95023.35
2018-03-15T04:47:28.168Z,95034.91
2018-03-15T04:50:52.225Z,95031.50
2018-03-15T04:54:15.533Z,95024.88
2018-03-15T04:57:38.862Z,95011.11
2018-03-15T05:01:02.171Z,95013.06
2018-03-15T05:04:25.451Z,95014.78
2018-03-15T05:07:48.759Z,95001.96
2018-03-15T05:11:12.104Z,95001.12
2018-03-15T05:14:35.475Z,94998.31
2018-03-15T05:17:59.536Z,94985.98
2018-03-15T05:21:22.807Z,94987.08
2018-03-15T05:24:46.091Z,94977.55
2018-03-15T05:28:09.467Z,94973.66
2018-03-15T05:31:32.837Z,94981.55
2018-03-15T05:34:56.207Z,94974.05
2018-03-15T05:38:19.547Z,94959.11
2018-03-15T05:41:42.850Z,94964.41
2018-03-15T05:45:06.265Z,94970.39
2018-03-15T05:48:30.334Z,94951.84
2018-03-15T05:51:53.789Z,94938.83
2018-03-15T05:55:17.893Z,94939.89
2018-03-15T05:58:41.215Z,94956.13
2018-03-15T06:02:04.502Z,94958.92
2018-03-15T06:05:27.787Z,94940.75
2018-03-15T06:08:51.880Z,94936.72
2018-03-15T06:12:15.946Z,94940.78
2018-03-15T06:15:40.044Z,94934.41
2018-03-15T06:19:04.080Z,94932.70
2018-03-15T06:22:28.204Z,94927.03
2018-03-15T06:25:51.577Z,94932.36
2018-03-15T06:29:15.628Z,94927.80
2018-03-15T06:32:39.677Z,94929.05
2018-03-15T06:36:04.155Z,94927.60
2018-03-15T06:39:28.231Z,94926.23
2018-03-15T06:42:51.515Z,94924.05
2018-03-15T06:46:15.585Z,94922.66
2018-03-15T06:49:38.874Z,94926.04
2018-03-15T06:53:02.959Z,94920.17
2018-03-15T06:56:26.997Z,94924.76
2018-03-15T06:59:50.349Z,94920.42
2018-03-15T07:03:13.632Z,94913.63
2018-03-15T07:06:37.694Z,94902.27
2018-03-15T07:10:00.997Z,94901.53
2018-03-15T07:13:24.259Z,94897.11
2018-03-15T07:16:48.281Z,94902.77
2018-03-15T07:20:12.361Z,94895.51
2018-03-15T07:23:35.731Z,94900.19
2018-03-15T07:26:59.105Z,94902.02
2018-03-15T07:30:22.474Z,94895.59
2018-03-15T07:33:45.763Z,94894.98
2018-03-15T07:37:09.032Z,94889.67
2018-03-15T07:40:32.309Z,94887.56
2018-03-15T07:43:55.648Z,94879.34
2018-03-15T07:47:18.950Z,94867.14
2018-03-15T07:50:42.222Z,94859.67
2018-03-15T07:54:05.637Z,94860.39
2018-03-15T07:57:28.964Z,94860.47
2018-03-15T08:00:52.250Z,94857.28
2018-03-15T08:04:16.296Z,94855.77
2018-03-15T08:07:39.646Z,94855.14
2018-03-15T08:11:02.996Z,94851.28
2018-03-15T08:14:26.506Z,94855.53
2018-03-15T08:17:50.671Z,94865.28
2018-03-15T08:21:13.981Z,94866.52
2018-03-15T08:24:37.289Z,94852.52
2018-03-15T08:28:00.637Z,94845.52
2018-03-15T08:31:23.922Z,94856.20
2018-03-15T08:34:48.089Z,94849.02
2018-03-15T08:38:11.450Z,94850.19
2018-03-15T08:41:34.816Z,94845.72
2018-03-15T08:44:58.096Z,94835.41
2018-03-15T08:48:21.474Z,94838.14
2018-03-15T08:51:46.321Z,94836.21
2018-03-15T08:55:09.726Z,94835.17
2018-03-15T08:58:33.768Z,94830.02
2018-03-15T09:01:57.137Z,94831.61
2018-03-15T09:05:20.466Z,94824.50
2018-03-15T09:08:43.879Z,94811.59
2018-03-15T09:12:07.962Z,94812.38
2018-03-15T09:15:31.283Z,94816.81
2018-03-15T09:18:54.751Z,94812.94
2018-03-15T09:22:18.911Z,94805.09
2018-03-15T09:25:43.049Z,94802.03
2018-03-15T09:29:06.508Z,94798.17
2018-03-15T09:32:30.573Z,94795.69
2018-03-15T09:35:54.675Z,94786.34
2018-03-15T09:39:18.068Z,94778.72
2018-03-15T09:42:42.678Z,94780.28
2018-03-15T09:46:07.194Z,94773.82
2018-03-15T09:49:32.841Z,94765.98
2018-03-15T09:52:58.569Z,94759.92
2018-03-15T09:56:23.589Z,94762.59
2018-03-15T09:59:48.751Z,94761.94
2018-03-15T10:03:12.091Z,94757.70
2018-03-15T10:06:36.093Z,94750.80
2018-03-15T10:09:59.956Z,94749.98
2018-03-15T10:13:23.856Z,94742.00
2018-03-15T10:16:49.061Z,94740.17
2018-03-15T10:20:12.598Z,94729.41
2018-03-15T10:23:38.385Z,94734.65
2018-03-15T10:27:13.803Z,94728.16
2018-03-15T10:30:37.856Z,94722.91
2018-03-15T10:34:02.927Z,94720.61
2018-03-15T10:37:27.055Z,94713.38
2018-03-15T10:40:51.525Z,94710.38
2018-03-15T10:44:14.982Z,94702.16
2018-03-15T10:47:39.102Z,94687.50
2018-03-15T10:51:03.936Z,94687.75
2018-03-15T10:54:28.803Z,94676.77
2018-03-15T10:57:55.221Z,94666.94
2018-03-15T11:01:22.643Z,94647.59
2018-03-15T11:04:52.442Z,94651.77
2018-03-15T11:08:23.204Z,94634.49
2018-03-15T11:11:47.331Z,94629.17
2018-03-15T11:15:12.015Z,94614.72
2018-03-15T11:18:36.390Z,94589.65
2018-03-15T11:21:59.734Z,94565.33
2018-03-15T11:25:27.101Z,94548.73
2018-03-15T11:28:51.240Z,94546.56
2018-03-15T11:32:14.631Z,94557.05
2018-03-15T11:35:41.825Z,94536.07
2018-03-15T11:39:06.569Z,94519.61
2018-03-15T11:42:29.926Z,94511.66
2018-03-15T11:45:53.893Z,94512.20
2018-03-15T11:49:18.609Z,94522.86
2018-03-15T11:52:42.148Z,94542.77
2018-03-15T11:56:06.610Z,94530.08
2018-03-15T11:59:30.207Z,94510.96
2018-03-15T12:02:55.210Z,94493.59
2018-03-15T12:06:20.158Z,94480.59
2018-03-15T12:09:45.564Z,94453.20
2018-03-15T12:13:09.194Z,94467.13
2018-03-15T12:16:34.922Z,94474.20
2018-03-15T12:20:00.267Z,94468.66
2018-03-15T12:23:25.493Z,94452.39
2018-03-15T12:26:48.899Z,94456.50
2018-03-15T12:30:12.244Z,94426.78
2018-03-15T12:33:35.761Z,94409.48
2018-03-15T12:36:59.326Z,94408.31
2018-03-15T12:40:22.864Z,94417.23
2018-03-15T12:43:47.002Z,94419.52
2018-03-15T12:47:11.123Z,94416.88
2018-03-15T12:50:34.478Z,94416.53
2018-03-15T12:53:57.767Z,94418.31
2018-03-15T12:57:21.115Z,94398.59
2018-03-15T13:00:46.515Z,94409.20
2018-03-15T13:04:10.572Z,94415.44
2018-03-15T13:07:33.912Z,94393.11
2018-03-15T13:10:57.245Z,94402.86
2018-03-15T13:14:21.368Z,94401.13
2018-03-15T13:17:44.688Z,94413.66
2018-03-15T13:21:08.015Z,94400.67
2018-03-15T13:24:31.387Z,94404.28
2018-03-15T13:27:54.686Z,94400.05
2018-03-15T13:31:17.999Z,94406.87
2018-03-15T13:34:42.115Z,94399.65
2018-03-15T13:38:05.421Z,94398.31
2018-03-15T13:41:28.739Z,94398.42
2018-03-15T13:44:52.040Z,94397.14
2018-03-15T13:48:16.162Z,94391.22
2018-03-15T13:51:39.454Z,94396.32
2018-03-15T13:55:02.757Z,94395.02
2018-03-15T13:58:26.855Z,94397.91
2018-03-15T14:01:50.152Z,94396.73
2018-03-15T14:05:14.442Z,94391.41
2018-03-15T14:08:37.865Z,94392.23
2018-03-15T14:12:01.153Z,94398.76
2018-03-15T14:15:24.474Z,94405.89
2018-03-15T14:18:48.537Z,94412.23
2018-03-15T14:22:11.848Z,94422.63
2018-03-15T14:25:35.229Z,94439.55
2018-03-15T14:28:59.368Z,94455.39
2018-03-15T14:32:22.648Z,94463.08
2018-03-15T14:35:46.710Z,94473.77
2018-03-15T14:39:10.090Z,94479.53
2018-03-15T14:42:33.800Z,94500.62
2018-03-15T14:45:57.193Z,94507.22
2018-03-15T14:49:20.773Z,94523.53
2018-03-15T14:52:46.569Z,94526.64
2018-03-15T14:56:10.989Z,94517.55
2018-03-15T14:59:34.571Z,94524.77
2018-03-15T15:02:59.092Z,94545.67
2018-03-15T15:06:22.845Z,94553.66
2018-03-15T15:09:46.264Z,94548.23
2018-03-15T15:13:10.447Z,94575.38
2018-03-15T15:16:33.891Z,94565.63
2018-03-15T15:19:57.176Z,94564.02
2018-03-15T15:23:20.517Z,94585.05
2018-03-15T15:26:44.608Z,94592.98
2018-03-15T15:30:08.794Z,94591.27
2018-03-15T15:33:32.925Z,94589.89
2018-03-15T15:36:56.256Z,94597.64
2018-03-15T15:40:20.427Z,94606.38
2018-03-15T15:43:45.630Z,94620.36
2018-03-15T15:47:09.098Z,94626.23
2018-03-15T15:50:33.157Z,94623.03
2018-03-15T15:53:56.576Z,94639.55
2018-03-15T15:57:20.009Z,94627.23
2018-03-15T16:00:43.425Z,94619.10
2018-03-15T16:04:07.537Z,94624.69
2018-03-15T16:07:30.835Z,94630.59
2018-03-15T16:10:55.012Z,94633.91
2018-03-15T16:14:18.310Z,94640.13
2018-03-15T16:17:41.612Z,94639.25
2018-03-15T16:21:05.747Z,94646.29
2018-03-15T16:24:29.882Z,94646.34
2018-03-15T16:27:53.370Z,94663.41
2018-03-15T16:31:17.463Z,94666.00
2018-03-15T16:34:41.511Z,94674.75
2018-03-15T16:38:04.847Z,94681.15
2018-03-15T16:41:28.219Z,94683.34
2018-03-15T16:44:51.644Z,94685.00
2018-03-15T16:48:15.737Z,94697.67
2018-03-15T16:51:39.862Z,94700.77
2018-03-15T16:55:03.176Z,94706.14
2018-03-15T16:58:26.508Z,94699.89
2018-03-15T17:01:50.577Z,94712.89
2018-03-15T17:05:14.010Z,94710.56
2018-03-15T17:08:37.314Z,94716.83
2018-03-15T17:12:00.669Z,94730.39
2018-03-15T17:15:24.707Z,94735.33
2018-03-15T17:18:49.523Z,94747.70
2018-03-15T17:22:13.710Z,94748.17
2018-03-15T17:25:37.033Z,94758.33
2018-03-15T17:29:00.348Z,94773.52
2018-03-15T17:32:23.732Z,94785.02
2018-03-15T17:35:47.109Z,94787.09
2018-03-15T17:39:10.585Z,94792.81
2018-03-15T17:42:34.788Z,94815.75
2018-03-15T17:45:58.842Z,94814.92
2018-03-15T17:49:22.112Z,94826.13
2018-03-15T17:52:45.409Z,94827.78
2018-03-15T17:56:09.469Z,94823.91
2018-03-15T17:59:34.777Z,94846.52
2018-03-15T18:02:59.279Z,94863.60
2018-03-15T18:06:23.946Z,94877.70
2018-03-15T18:09:48.352Z,94881.45
2018-03-15T18:13:12.630Z,94887.70
2018-03-15T18:16:36.199Z,94908.77
2018-03-15T18:19:59.843Z,94906.43
2018-03-15T18:23:26.941Z,94917.91
2018-03-15T18:26:50.317Z,94920.77
2018-03-15T18:30:13.631Z,94927.61
2018-03-15T18:33:36.938Z,94934.05
2018-03-15T18:37:00.378Z,94938.08
2018-03-15T18:40:24.607Z,94939.25
2018-03-15T18:43:48.096Z,94955.20
2018-03-15T18:47:13.035Z,94959.58
2018-03-15T18:50:36.517Z,94957.58
2018-03-15T18:54:01.312Z,94963.98
2018-03-15T18:57:24.697Z,94967.86
2018-03-15T19:00:48.879Z,94962.45
2018-03-15T19:04:12.347Z,94967.66
2018-03-15T19:07:35.676Z,94970.70
2018-03-15T19:10:59.717Z,94986.72
2018-03-15T19:14:23.793Z,94981.02
2018-03-15T19:17:47.094Z,94990.00
2018-03-15T19:21:10.363Z,94991.23
2018-03-15T19:24:33.775Z,94997.99
2018-03-15T19:27:57.072Z,94998.08
2018-03-15T19:31:21.162Z,94999.95
2018-03-15T19:34:45.224Z,95003.95
2018-03-15T19:38:08.562Z,95007.73
2018-03-15T19:41:31.833Z,95005.21
2018-03-15T19:44:55.917Z,95010.64
2018-03-15T19:48:20.015Z,95007.02
2018-03-15T19:51:44.079Z,95008.96
2018-03-15T19:55:07.447Z,95017.66
2018-03-15T19:58:30.734Z,95027.26
2018-03-15T20:01:54.819Z,95027.75
2018-03-15T20:05:18.104Z,95032.69
2018-03-15T20:08:41.378Z,95030.45
2018-03-15T20:12:04.759Z,95031.40
2018-03-15T20:19:19.164Z,95037.52
2018-03-15T20:22:48.179Z,95051.75
2018-03-15T20:26:12.318Z,95048.93
2018-03-15T20:29:36.453Z,95051.75
2018-03-15T20:33:06.060Z,95046.95
2018-03-15T20:36:30.239Z,95053.06
2018-03-15T20:39:59.136Z,95050.00
2018-03-15T20:43:22.619Z,95045.81
2018-03-15T20:46:51.648Z,95049.25
2018-03-15T20:50:15.020Z,95047.17
2018-03-15T20:53:38.380Z,95044.64
2018-03-15T20:57:02.485Z,95045.41
2018-03-15T21:00:25.836Z,95038.33
2018-03-15T21:03:49.908Z,95037.50
2018-03-15T21:07:14.020Z,95045.30
2018-03-15T21:10:38.142Z,95051.51
2018-03-15T21:14:02.219Z,95055.53
2018-03-15T21:17:25.506Z,95049.14
2018-03-15T21:20:49.542Z,95046.34
2018-03-15T21:24:13.664Z,95046.85
2018-03-15T21:27:36.953Z,95047.12
2018-03-15T21:31:00.261Z,95056.95
2018-03-15T21:34:24.352Z,95048.81
2018-03-15T21:37:49.431Z,95053.51
2018-03-15T21:41:12.697Z,95060.16
2018-03-15T21:44:36.000Z,95071.02
2018-03-15T21:47:59.264Z,95067.19
2018-03-15T21:51:23.388Z,95090.99
2018-03-15T21:54:46.709Z,95072.31
2018-03-15T21:58:10.000Z,95072.58
2018-03-15T22:01:33.347Z,95068.44
2018-03-15T22:04:56.829Z,95070.30
2018-03-15T22:08:20.083Z,95071.89
2018-03-15T22:11:43.512Z,95082.42
2018-03-15T22:15:06.797Z,95082.46
2018-03-15T22:18:30.913Z,95085.69
2018-03-15T22:21:54.250Z,95089.48
2018-03-15T22:25:18.294Z,95094.13
2018-03-15T22:28:42.350Z,95106.94
2018-03-15T22:32:05.646Z,95111.95
2018-03-15T22:35:29.763Z,95109.48
2018-03-15T22:38:53.051Z,95105.99
2018-03-15T22:42:16.344Z,95107.24
2018-03-15T22:45:39.603Z,95102.09
2018-03-15T22:49:02.937Z,95107.51
2018-03-15T22:52:26.289Z,95110.66
2018-03-15T22:55:49.588Z,95120.33
2018-03-15T22:59:13.624Z,95130.39
2018-03-15T23:02:37.684Z,95127.02
2018-03-15T23:06:01.092Z,95128.16
2018-03-15T23:09:25.178Z,95139.61
2018-03-15T23:12:49.451Z,95138.47
2018-03-15T23:16:12.815Z,95153.52
2018-03-15T23:19:36.106Z,95156.34
2018-03-15T23:23:00.132Z,95162.98
2018-03-15T23:26:24.205Z,95157.23
2018-03-15T23:29:47.534Z,95161.16
2018-03-15T23:33:10.849Z,95160.37
2018-03-15T23:36:34.123Z,95153.52
2018-03-15T23:39:58.198Z,95163.41
2018-03-15T23:43:21.481Z,95167.45
2018-03-15T23:46:45.532Z,95178.25
2018-03-15T23:50:08.880Z,95178.38
2018-03-15T23:53:32.248Z,95178.92
2018-03-15T23:56:55.533Z,95175.16
